Madera, CA

5:17 AM PDT on October 22, 2014 (GMT -0700)
Madera Municipal | Change Station
CLOSE
Current Station
Airport
Location: Madera,
Elevation: 253 ft
Nearby Weather Stations

Elev 253 ft 36.99 °N, 120.11 °W | Updated 24 minutes ago

Clear
Clear
46 °F
Feels Like 44 °F
N
5
Wind Variable Wind from SW

Today
High -- | Low -- °F
--% Chance of Precip.
Yesterday
High -- | Low -- °F
Precip. -- in
7:14 AM 6:14 PM
Waning Crescent, 2% visible
Pressure 30.02 in
Visibility 10.0 miles
Clouds Clear
Windchill 44 °F
Dew Point 41 °F
Humidity 83%
Rainfall 0.00 in
Snow Depth Not available.
UV 0 out of 12
Pollen 2.70 out of 12
Air Quality Not available.
Flu Activity Sporadic
METAR KMAE 221153Z AUTO 23004KT 10SM CLR 08/05 A3002 RMK AO2 SLP166 T00780050 10106 20072 55002

More Conditions Fewer Conditions

Pressure 30.02 in
Visibility 10.0 miles
Clouds Clear
Windchill 44 °F
Dew Point 41 °F
Humidity 83%
Rainfall 0.00 in
Snow Depth Not available.
UV 0 out of 12
Pollen 2.70 out of 12
Air Quality Not available.
Flu Activity Sporadic
METAR KMAE 221153Z AUTO 23004KT 10SM CLR 08/05 A3002 RMK AO2 SLP166 T00780050 10106 20072 55002

More Conditions Fewer Conditions

10-Day Weather Forecast

Almanac

Astronomy

Oct. 22, 2014 Rise Set
Actual Time 7:14 AM PDT 6:14 PM PDT
Civil Twilight 6:47 AM PDT 6:40 PM PDT
Nautical Twilight 6:17 AM PDT 7:10 PM PDT
Astronomical Twilight 5:47 AM PDT 7:40 PM PDT
Moon 6:02 AM PDT 5:42 PM PDT
Length of Visible Light 11h 52m
Length of Day
10h 59m
Tomorrow will be 2m 13s shorter.
Waning Crescent, 2% of the Moon is Illuminated
Today
Waning Crescent
Oct 23
New
Oct 30
First Quarter
Nov 6
Full
Nov 14
Last Quarter

Today's Extremes

State Highs State Lows

Community

WunderPhotos

Upload Photos

1,763,906 photos uploaded!

Nearby

Air Quality

  Air Quality AQ Index Pollutant
Wednesday Good
OZONE
Thursday Good
OZONE
Friday Good
OZONE
Saturday Good
OZONE
Sunday Good
OZONE

Snow Depth

Station Depth Elevation
Virginia Lakes Ridge 0 in 9200 ft
Leavitt Lake 1 in 9400 ft
Sonora Pass 0 in 8800 ft
Leavitt Meadows 1 in 7200 ft
Summit Meadow 1 in 9122 ft

Earthquake Activity

City Distance Mag. Time & Date
Mammoth Lakes, California 75 miles 3.0 11:10 PM PDT
2014-10-20
Lone Pine, California 106 miles 2.6 5:26 AM PDT
2014-10-19
Dixon Lane-Meadow Creek, California 95 miles 2.6 5:32 PM PDT
2014-10-18
Minimum magnitude displayed is 2.5.

Coastal Water Temperatures

Place Temperature
No Stations Reporting

Nearby Weather Stations